Archival Weather

Chicago O'Hare International

Chicago, Illinois (KORD)

Report from: Wednesday, November 23, 2022 6:51 PM CST
Current time: Monday, July 22, 2024 5:49 AM CDT

Current weather – Weather history – Daily summaries
Weather forecast

Temperature9.4°C (48.9°F)
Wind chill8.1°C (46.5°F)
Dew point3.3°C (37.9°F)
Winds 5 kts (2.6 m/s, 5.8 mph) South (180°)
Visibility10 mi. (16.1 km)
Clouds Ceiling: Broken clouds 25,000 ft. (7,620 m)
Altimeter30.13 in.Hg (1020 mB)
Relative humidity66 %
Density altitude-808 ft. (-246 m)
Sea-level pressure102.1 kPa (1021 mB, 30.14 in.Hg)
Remarks System requires maintenance
Automated weather observing station with precipitation discriminator
Flight conditions Visual Meteorological Conditions
Raw dataKORD 240051Z 18005KT 10SM BKN250 09/03 A3013 RMK AO2 SLP207 T00940033 $
An error has occurred. This application may no longer respond until reloaded. Reload 🗙